Terminal Aerodrome Forecast
Issued by NWS

Current Version | Previous Version | Text Only | Print | Product List | Glossary Off
Versions: 1 2 3 4 5 6 7 8 9 10 11 12 13 14 15 16 17 18 19 20 21 22 23 24 25

000
FTUS41 KRLX 040553
TAFCKB
TAF
KCKB 040553Z 0406/0506 00000KT 3SM BR SCT100
      TEMPO 0406/0408 1SM BR SCT001
     FM041300 00000KT P6SM VCTS BKN035CB
     FM042300 00000KT P6SM BKN040
     FM050300 00000KT 6SM BR SCT040
     FM050500 00000KT 3SM BR SCT040=

USA.gov is the U.S. government's official web portal to all federal, state and local government web resources and services.